Heyuan, China
Current Conditions -  °F | °C
As of 11:00 AM on Wednesday 22 Oct 2014 (Local Time) from ZGGG Reporting Station
Clear Clear  
Wind Chill: 82°   Ceiling: Unl
Heat Index: 83°   Visibility: 6mi
Dew Point: 61°   Wind: 13mph
Humidity: 48%   Direction: 20°NNE
Pressure: 30.06"   Gusts: NA
Location:  23.73°N, 114.68°E
Report Text: ZGGG 220300Z 02006MPS 340V050 CAVOK 28/16 Q1018 NOSIG
Loading
Personal Weather Stations






























Interactive Weather Map
Tropical Storm Tracking
New forecast layout! Learn more

10-Day Weather Forecast

Advertisements
Track Severe Weather on mobile